Time;durP1;ratioP1;P1;durP2;ratioP2;P2;SDS_P1;SDS_P2;PMS_P1;PMS_P2;Temp;Humidity;BMP_temperature;BMP_pressure;BME280_temperature;BME280_humidity;BME280_pressure;Samples;Min_cycle;Max_cycle;Signal;HPM_P1;HPM_P2
2022/12/21 00:01:51;;;;;;;;;;;9.10;99.90;;;;;;5050068;28;19924;-69
2022/12/21 00:04:16;;;;;;;;;;;9.00;99.90;;;;;;5045193;28;20392;-69
2022/12/21 00:06:42;;;;;;;;;;;9.00;99.90;;;;;;5045389;28;19917;-70
2022/12/21 00:09:09;;;;;;;;;;;8.90;99.90;;;;;;5031459;28;19939;-70
2022/12/21 00:11:35;;;;;;;;;;;9.00;99.90;;;;;;5045663;28;20374;-71
2022/12/21 00:14:01;;;;;;;;;;;8.90;99.90;;;;;;5031149;28;19923;-71
2022/12/21 00:16:28;;;;;;;;;;;9.00;99.90;;;;;;5047684;28;20773;-71
2022/12/21 00:18:54;;;;;;;;;;;9.40;99.90;;;;;;5048688;28;20376;-70
2022/12/21 00:21:24;;;;;;;;;;;9.60;99.90;;;;;;5048030;28;19967;-70
2022/12/21 00:23:51;;;;;;;;;;;9.40;99.90;;;;;;5043257;28;19916;-72
2022/12/21 00:26:18;;;;;;;;;;;9.50;99.90;;;;;;5028866;28;20289;-71
2022/12/21 00:28:44;;;;;;;;;;;9.70;99.90;;;;;;5045471;28;19920;-71
2022/12/21 00:31:10;;;;;;;;;;;9.70;99.90;;;;;;5029460;28;19913;-70
2022/12/21 00:33:37;;;;;;;;;;;9.60;99.90;;;;;;5046493;28;19921;-71
2022/12/21 00:36:03;;;;;;;;;;;9.60;99.90;;;;;;5049370;28;19920;-70
2022/12/21 00:38:28;;;;;;;;;;;9.60;99.90;;;;;;5046451;28;21272;-70
2022/12/21 00:40:58;;;;;;;;;;;9.50;99.90;;;;;;5047945;28;19913;-71
2022/12/21 00:43:23;;;;;;;;;;;9.50;99.90;;;;;;5045003;28;19917;-70
2022/12/21 00:45:49;;;;;;;;;;;9.50;99.90;;;;;;5046462;28;19967;-71
2022/12/21 00:48:14;;;;;;;;;;;9.50;99.90;;;;;;5046516;28;19960;-70
2022/12/21 00:50:40;;;;;;;;;;;9.50;99.90;;;;;;5037701;28;19913;-69
2022/12/21 00:53:05;;;;;;;;;;;9.50;99.90;;;;;;5027751;28;19920;-72
2022/12/21 00:55:30;;;;;;;;;;;9.50;99.90;;;;;;5043988;28;19923;-70
2022/12/21 00:57:57;;;;;;;;;;;9.80;99.90;;;;;;5046714;28;20318;-71
2022/12/21 01:00:23;;;;;;;;;;;9.70;99.90;;;;;;5044825;28;19919;-70
2022/12/21 01:02:48;;;;;;;;;;;9.60;99.90;;;;;;5046430;28;20019;-70
2022/12/21 01:05:14;;;;;;;;;;;9.60;99.90;;;;;;5046510;28;20382;-70
2022/12/21 01:07:39;;;;;;;;;;;9.50;99.90;;;;;;5044980;28;19952;-71
2022/12/21 01:10:05;;;;;;;;;;;9.40;99.90;;;;;;5100668;22;19928;-65
2022/12/21 01:12:30;;;;;;;;;;;9.40;99.90;;;;;;5084457;28;19912;-64
2022/12/21 01:14:56;;;;;;;;;;;9.40;99.90;;;;;;5068877;28;19912;-66
2022/12/21 01:17:21;;;;;;;;;;;9.50;99.90;;;;;;5088881;28;19912;-65
2022/12/21 01:19:48;;;;;;;;;;;9.50;99.90;;;;;;5084066;28;19920;-66
2022/12/21 01:22:13;;;;;;;;;;;9.50;99.90;;;;;;5086266;28;19912;-63
2022/12/21 01:24:39;;;;;;;;;;;9.60;99.90;;;;;;5081416;28;19958;-65
2022/12/21 01:27:04;;;;;;;;;;;9.60;99.90;;;;;;5084494;28;19955;-66
2022/12/21 01:29:30;;;;;;;;;;;9.60;99.90;;;;;;5084084;28;20247;-64
2022/12/21 01:31:55;;;;;;;;;;;9.50;99.90;;;;;;5086196;28;19912;-65
2022/12/21 01:34:21;;;;;;;;;;;9.50;99.90;;;;;;5086388;28;19966;-66
2022/12/21 01:36:46;;;;;;;;;;;9.60;99.90;;;;;;5088877;28;19923;-65
2022/12/21 01:39:12;;;;;;;;;;;9.60;99.90;;;;;;5090102;28;19913;-65
2022/12/21 01:41:37;;;;;;;;;;;9.50;99.90;;;;;;5086131;28;19917;-65
2022/12/21 01:44:04;;;;;;;;;;;9.50;99.90;;;;;;5089988;28;20397;-65
2022/12/21 01:46:47;;;;;;;;;;;9.40;99.90;;;;;;5092115;28;20286;-66
2022/12/21 01:49:13;;;;;;;;;;;9.40;99.90;;;;;;5088414;28;19912;-67
2022/12/21 01:51:38;;;;;;;;;;;9.40;99.90;;;;;;5086348;28;19920;-64
2022/12/21 01:54:15;;;;;;;;;;;9.40;99.90;;;;;;5093485;28;19964;-64
2022/12/21 01:56:42;;;;;;;;;;;9.40;99.90;;;;;;5086386;28;19920;-64
2022/12/21 01:59:09;;;;;;;;;;;9.40;99.90;;;;;;5092542;28;19912;-65
2022/12/21 02:01:35;;;;;;;;;;;9.40;99.90;;;;;;5090943;28;19912;-65
2022/12/21 02:04:01;;;;;;;;;;;9.50;99.90;;;;;;5089449;28;19916;-65
2022/12/21 02:06:31;;;;;;;;;;;9.50;99.90;;;;;;5090158;28;19926;-65
2022/12/21 02:08:57;;;;;;;;;;;9.60;99.90;;;;;;5090546;28;20057;-65
2022/12/21 02:11:23;;;;;;;;;;;9.70;99.90;;;;;;5086822;28;19994;-65
2022/12/21 02:13:49;;;;;;;;;;;9.80;99.90;;;;;;5088950;28;20456;-64
2022/12/21 02:16:20;;;;;;;;;;;9.70;99.90;;;;;;5084645;28;19912;-64
2022/12/21 02:19:21;;;;;;;;;;;9.50;99.90;;;;;;5087088;28;19919;-64
2022/12/21 02:21:49;;;;;;;;;;;9.50;99.90;;;;;;4990479;28;19925;-64
2022/12/21 02:24:33;;;;;;;;;;;9.50;99.90;;;;;;5070132;28;19927;-66
2022/12/21 02:27:02;;;;;;;;;;;9.50;99.90;;;;;;5088693;28;19957;-62
2022/12/21 02:29:46;;;;;;;;;;;9.40;99.90;;;;;;5082104;28;20170;-64
2022/12/21 02:32:21;;;;;;;;;;;9.40;99.90;;;;;;5086763;28;20464;-66
2022/12/21 02:34:55;;;;;;;;;;;9.30;99.90;;;;;;5088752;28;19920;-63
2022/12/21 02:37:39;;;;;;;;;;;9.30;99.90;;;;;;5088050;28;19980;-63
2022/12/21 02:40:13;;;;;;;;;;;9.40;99.90;;;;;;5089062;28;19915;-63
2022/12/21 02:45:48;;;;;;;;;;;9.40;99.90;;;;;;5085658;28;20224;-64
2022/12/21 02:48:30;;;;;;;;;;;9.40;99.90;;;;;;5091519;28;19917;-65
2022/12/21 02:50:59;;;;;;;;;;;9.40;99.90;;;;;;5085745;28;19912;-65
2022/12/21 02:53:30;;;;;;;;;;;9.40;99.90;;;;;;5089304;28;19912;-64
2022/12/21 02:55:55;;;;;;;;;;;9.40;99.90;;;;;;5087629;28;20220;-65
2022/12/21 02:58:22;;;;;;;;;;;9.40;99.90;;;;;;5091510;28;19912;-62
2022/12/21 03:00:50;;;;;;;;;;;9.40;99.90;;;;;;5090651;28;19912;-66
2022/12/21 03:06:11;;;;;;;;;;;9.30;99.90;;;;;;5085045;28;19919;-65
2022/12/21 03:08:44;;;;;;;;;;;9.30;99.90;;;;;;5092176;28;19918;-65
2022/12/21 03:11:10;;;;;;;;;;;9.30;99.90;;;;;;5091765;28;19916;-63
2022/12/21 03:13:54;;;;;;;;;;;9.10;99.90;;;;;;5089227;28;19912;-63
2022/12/21 03:16:29;;;;;;;;;;;9.00;99.90;;;;;;5086714;28;19974;-64
2022/12/21 03:19:09;;;;;;;;;;;9.10;99.90;;;;;;5084414;28;19919;-64
2022/12/21 03:21:38;;;;;;;;;;;9.00;99.90;;;;;;5085629;28;20341;-65
2022/12/21 03:24:04;;;;;;;;;;;9.00;99.90;;;;;;5087697;28;19920;-63
2022/12/21 03:26:34;;;;;;;;;;;9.00;99.90;;;;;;5085608;28;20231;-64
2022/12/21 03:29:00;;;;;;;;;;;9.10;99.90;;;;;;5082899;28;19912;-66
2022/12/21 03:31:32;;;;;;;;;;;9.10;99.90;;;;;;5083225;28;19919;-64
2022/12/21 03:34:00;;;;;;;;;;;9.10;99.90;;;;;;5086385;28;19920;-64
2022/12/21 03:36:29;;;;;;;;;;;9.10;99.90;;;;;;5082937;28;19943;-66
2022/12/21 03:39:00;;;;;;;;;;;9.10;99.90;;;;;;5086363;28;19915;-66
2022/12/21 03:41:31;;;;;;;;;;;9.00;99.90;;;;;;5077219;28;19912;-65
2022/12/21 03:44:00;;;;;;;;;;;9.00;99.90;;;;;;5088831;28;19970;-65
2022/12/21 03:46:29;;;;;;;;;;;9.00;99.90;;;;;;5086311;28;19912;-64
2022/12/21 03:49:00;;;;;;;;;;;9.00;99.90;;;;;;5088640;28;20031;-64
2022/12/21 03:51:28;;;;;;;;;;;9.10;99.90;;;;;;5085684;28;19928;-65
2022/12/21 03:53:59;;;;;;;;;;;9.20;99.90;;;;;;5089976;28;20357;-65
2022/12/21 03:56:30;;;;;;;;;;;9.20;99.90;;;;;;5090435;28;19938;-65
2022/12/21 03:58:55;;;;;;;;;;;9.30;99.90;;;;;;5087742;28;19947;-64
2022/12/21 04:01:35;;;;;;;;;;;9.30;99.90;;;;;;5083574;28;20329;-64
2022/12/21 04:04:04;;;;;;;;;;;9.20;99.90;;;;;;5084751;28;19923;-64
2022/12/21 04:06:31;;;;;;;;;;;9.20;99.90;;;;;;5087027;28;20170;-67
2022/12/21 04:08:56;;;;;;;;;;;9.20;99.90;;;;;;5089999;28;19916;-66
2022/12/21 04:14:06;;;;;;;;;;;9.10;99.90;;;;;;5085467;28;20423;-66
2022/12/21 04:16:31;;;;;;;;;;;9.10;99.90;;;;;;5090296;28;19913;-63
2022/12/21 04:21:41;;;;;;;;;;;9.00;99.90;;;;;;5088443;28;20054;-65
2022/12/21 04:29:36;;;;;;;;;;;9.00;99.90;;;;;;5085047;28;19919;-65
2022/12/21 04:32:01;;;;;;;;;;;8.90;99.90;;;;;;5088198;28;19912;-65
2022/12/21 04:34:27;;;;;;;;;;;8.90;99.90;;;;;;5084302;28;20386;-65
2022/12/21 04:39:36;;;;;;;;;;;9.00;99.90;;;;;;5085985;28;20298;-66
2022/12/21 04:42:01;;;;;;;;;;;9.10;99.90;;;;;;5086690;28;20164;-64
2022/12/21 04:44:27;;;;;;;;;;;9.10;99.90;;;;;;5090229;28;20432;-65
2022/12/21 04:46:52;;;;;;;;;;;9.10;99.90;;;;;;5088942;28;19918;-66
2022/12/21 04:49:18;;;;;;;;;;;9.10;99.90;;;;;;5081213;28;19958;-64
2022/12/21 04:51:43;;;;;;;;;;;9.10;99.90;;;;;;5087717;28;19919;-67
2022/12/21 04:54:09;;;;;;;;;;;9.10;99.90;;;;;;5089359;28;20529;-63
2022/12/21 04:56:34;;;;;;;;;;;9.10;99.90;;;;;;5086850;28;19955;-64
2022/12/21 04:58:59;;;;;;;;;;;9.10;99.90;;;;;;5083169;28;19912;-68
2022/12/21 05:01:25;;;;;;;;;;;9.10;99.90;;;;;;5083515;28;19938;-65
2022/12/21 05:03:51;;;;;;;;;;;9.00;99.90;;;;;;5082268;28;19920;-65
2022/12/21 05:06:17;;;;;;;;;;;9.00;99.90;;;;;;5087968;28;19947;-63
2022/12/21 05:08:43;;;;;;;;;;;9.00;99.90;;;;;;5086569;28;19916;-66
2022/12/21 05:11:10;;;;;;;;;;;8.90;99.90;;;;;;5090346;28;19958;-65
2022/12/21 05:13:36;;;;;;;;;;;9.00;99.90;;;;;;5092876;28;20385;-65
2022/12/21 05:16:02;;;;;;;;;;;9.00;99.90;;;;;;5087525;28;19912;-65
2022/12/21 05:18:28;;;;;;;;;;;9.00;99.90;;;;;;5089366;28;19945;-63
2022/12/21 05:20:53;;;;;;;;;;;9.00;99.90;;;;;;5086741;28;20367;-67
2022/12/21 05:23:18;;;;;;;;;;;9.00;99.90;;;;;;5093280;28;20313;-66
2022/12/21 05:25:44;;;;;;;;;;;8.90;99.90;;;;;;5091620;28;19920;-65
2022/12/21 05:28:09;;;;;;;;;;;9.00;99.90;;;;;;5088951;28;19939;-66
2022/12/21 05:30:35;;;;;;;;;;;9.00;99.90;;;;;;5088055;28;20406;-64
2022/12/21 05:33:00;;;;;;;;;;;9.10;99.90;;;;;;5091689;28;20422;-65
2022/12/21 05:35:26;;;;;;;;;;;9.10;99.90;;;;;;5087920;28;19931;-66
2022/12/21 05:37:51;;;;;;;;;;;9.10;99.90;;;;;;5090733;28;19912;-65
2022/12/21 05:40:17;;;;;;;;;;;9.10;99.90;;;;;;5090835;28;20004;-65
2022/12/21 05:42:42;;;;;;;;;;;9.00;99.90;;;;;;5087094;28;19969;-66
2022/12/21 05:45:08;;;;;;;;;;;8.90;99.90;;;;;;5081766;28;19920;-66
2022/12/21 05:47:33;;;;;;;;;;;9.00;99.90;;;;;;5091124;28;19908;-66
2022/12/21 05:49:59;;;;;;;;;;;9.00;99.90;;;;;;5090320;28;19918;-65
2022/12/21 05:52:24;;;;;;;;;;;9.00;99.90;;;;;;5088285;28;20386;-65
2022/12/21 05:54:49;;;;;;;;;;;9.10;99.90;;;;;;5093837;28;20296;-65
2022/12/21 05:57:15;;;;;;;;;;;9.10;99.90;;;;;;5090439;28;19908;-65
2022/12/21 05:59:40;;;;;;;;;;;9.10;99.90;;;;;;5067318;28;19912;-68
2022/12/21 06:02:06;;;;;;;;;;;9.00;99.90;;;;;;5091146;28;19938;-65
2022/12/21 06:04:31;;;;;;;;;;;9.10;99.90;;;;;;5086465;28;19982;-64
2022/12/21 06:06:57;;;;;;;;;;;9.00;99.90;;;;;;5088049;28;19927;-66
2022/12/21 06:09:23;;;;;;;;;;;9.00;99.90;;;;;;5088762;28;19927;-66
2022/12/21 06:11:48;;;;;;;;;;;9.00;99.90;;;;;;5090160;28;20274;-67
2022/12/21 06:14:14;;;;;;;;;;;8.90;99.90;;;;;;5083314;28;19920;-65
2022/12/21 06:16:39;;;;;;;;;;;8.80;99.90;;;;;;5087298;28;19912;-67
2022/12/21 06:19:04;;;;;;;;;;;8.80;99.90;;;;;;5086518;28;19915;-66
2022/12/21 06:21:30;;;;;;;;;;;8.80;99.90;;;;;;5091820;28;19912;-66
2022/12/21 06:23:56;;;;;;;;;;;8.80;99.90;;;;;;5088325;28;20026;-67
2022/12/21 06:26:21;;;;;;;;;;;8.80;99.90;;;;;;5091612;28;20313;-67
2022/12/21 06:28:48;;;;;;;;;;;8.80;99.90;;;;;;5087616;28;20294;-66
2022/12/21 06:31:13;;;;;;;;;;;8.90;99.90;;;;;;5091014;28;19919;-66
2022/12/21 06:33:39;;;;;;;;;;;8.80;99.90;;;;;;5089962;28;19917;-65
2022/12/21 06:36:05;;;;;;;;;;;8.90;99.90;;;;;;5092706;28;20323;-66
2022/12/21 06:38:31;;;;;;;;;;;8.90;99.90;;;;;;5092101;28;20381;-66
2022/12/21 06:40:58;;;;;;;;;;;8.90;99.90;;;;;;5086068;28;19916;-66
2022/12/21 06:43:27;;;;;;;;;;;9.00;99.90;;;;;;5089437;28;19920;-66
2022/12/21 06:45:53;;;;;;;;;;;8.90;99.90;;;;;;5084841;28;19951;-67
2022/12/21 06:48:19;;;;;;;;;;;8.90;99.90;;;;;;5088661;28;20515;-67
2022/12/21 06:50:44;;;;;;;;;;;9.00;99.90;;;;;;5088642;28;19916;-65
2022/12/21 06:53:10;;;;;;;;;;;9.00;99.90;;;;;;5088956;28;19986;-65
2022/12/21 06:55:35;;;;;;;;;;;9.00;99.90;;;;;;5086172;28;19913;-67
2022/12/21 06:58:00;;;;;;;;;;;8.80;99.90;;;;;;5083075;28;20013;-67
2022/12/21 07:00:26;;;;;;;;;;;8.80;99.90;;;;;;5091076;28;19912;-65
2022/12/21 07:02:51;;;;;;;;;;;8.80;99.90;;;;;;5088862;28;20006;-68
2022/12/21 07:05:17;;;;;;;;;;;8.80;99.90;;;;;;5085843;28;19955;-68
2022/12/21 07:07:42;;;;;;;;;;;8.80;99.90;;;;;;5089131;28;19916;-67
2022/12/21 07:10:08;;;;;;;;;;;8.90;99.90;;;;;;5085660;28;19916;-67
2022/12/21 07:12:33;;;;;;;;;;;9.00;99.90;;;;;;5088819;28;19920;-66
2022/12/21 07:14:59;;;;;;;;;;;9.00;99.90;;;;;;5087383;28;20384;-61
2022/12/21 07:17:24;;;;;;;;;;;9.00;99.90;;;;;;5084322;28;19912;-64
2022/12/21 07:19:50;;;;;;;;;;;9.00;99.90;;;;;;5079400;28;19912;-62
2022/12/21 07:22:15;;;;;;;;;;;9.00;99.90;;;;;;5087739;28;19916;-60
2022/12/21 07:24:40;;;;;;;;;;;9.00;99.90;;;;;;5085572;28;19923;-59
2022/12/21 07:27:06;;;;;;;;;;;9.10;99.90;;;;;;5086599;28;19931;-61
2022/12/21 07:29:32;;;;;;;;;;;9.20;99.90;;;;;;5089808;28;19912;-60
2022/12/21 07:31:57;;;;;;;;;;;9.20;99.90;;;;;;5069983;28;20342;-60
2022/12/21 07:34:22;;;;;;;;;;;9.20;99.90;;;;;;5081381;22;19924;-61
2022/12/21 07:36:48;;;;;;;;;;;9.20;99.90;;;;;;5060331;28;19920;-60
2022/12/21 07:39:13;;;;;;;;;;;9.20;99.90;;;;;;5062749;28;19921;-60
2022/12/21 07:41:39;;;;;;;;;;;9.20;99.90;;;;;;5055518;28;20006;-59
2022/12/21 07:44:04;;;;;;;;;;;9.20;99.90;;;;;;5048125;28;19979;-60
2022/12/21 07:46:30;;;;;;;;;;;9.20;99.90;;;;;;5054747;28;19923;-60
2022/12/21 07:48:55;;;;;;;;;;;9.20;99.90;;;;;;5048156;28;19921;-60
2022/12/21 07:51:21;;;;;;;;;;;9.30;99.90;;;;;;5054046;28;19916;-60
2022/12/21 07:53:46;;;;;;;;;;;9.30;99.90;;;;;;5048133;28;20132;-60
2022/12/21 07:56:13;;;;;;;;;;;9.30;99.90;;;;;;5054172;28;20008;-59
2022/12/21 07:58:39;;;;;;;;;;;9.30;99.90;;;;;;5060117;28;20298;-60
2022/12/21 08:01:06;;;;;;;;;;;9.30;99.90;;;;;;5049279;28;19915;-62
2022/12/21 08:03:31;;;;;;;;;;;9.30;99.90;;;;;;5054607;28;19917;-60
2022/12/21 08:05:56;;;;;;;;;;;9.30;99.90;;;;;;5050114;28;19917;-60
2022/12/21 08:08:22;;;;;;;;;;;9.40;99.90;;;;;;5053598;28;19913;-60
2022/12/21 08:10:48;;;;;;;;;;;9.40;99.90;;;;;;5051640;28;19943;-60
2022/12/21 08:13:13;;;;;;;;;;;9.40;99.90;;;;;;5053104;28;19920;-60
2022/12/21 08:15:39;;;;;;;;;;;9.40;99.90;;;;;;5053450;28;19944;-61
2022/12/21 08:18:05;;;;;;;;;;;9.40;99.90;;;;;;5052281;28;19995;-60
2022/12/21 08:20:30;;;;;;;;;;;9.40;99.90;;;;;;5050862;28;20003;-59
2022/12/21 08:22:56;;;;;;;;;;;9.50;99.90;;;;;;5052240;28;20289;-60
2022/12/21 08:25:21;;;;;;;;;;;9.40;99.90;;;;;;5051111;28;20442;-60
2022/12/21 08:27:47;;;;;;;;;;;9.50;99.90;;;;;;5058685;28;20476;-60
2022/12/21 08:30:12;;;;;;;;;;;9.60;99.90;;;;;;5051029;28;19909;-61
2022/12/21 08:32:38;;;;;;;;;;;9.50;99.90;;;;;;5061236;28;19909;-59
2022/12/21 08:35:03;;;;;;;;;;;9.50;99.90;;;;;;5050555;28;20321;-60
2022/12/21 08:37:29;;;;;;;;;;;9.50;99.90;;;;;;5056796;28;20007;-61
2022/12/21 08:39:54;;;;;;;;;;;9.50;99.90;;;;;;5050372;28;19920;-59
2022/12/21 08:42:20;;;;;;;;;;;9.50;99.90;;;;;;5048634;28;19920;-61
2022/12/21 08:44:46;;;;;;;;;;;9.40;99.90;;;;;;5050000;28;19928;-60
2022/12/21 08:47:12;;;;;;;;;;;9.40;99.90;;;;;;5058719;28;19909;-62
2022/12/21 08:49:37;;;;;;;;;;;9.40;99.90;;;;;;5054700;28;19912;-62
2022/12/21 08:52:03;;;;;;;;;;;9.40;99.90;;;;;;5054225;28;19917;-62
2022/12/21 08:54:28;;;;;;;;;;;9.50;99.90;;;;;;5058611;28;19913;-60
2022/12/21 08:56:54;;;;;;;;;;;9.50;99.90;;;;;;5062766;28;20390;-61
2022/12/21 08:59:19;;;;;;;;;;;9.60;99.90;;;;;;5047362;28;19917;-60
2022/12/21 09:01:45;;;;;;;;;;;9.50;99.90;;;;;;5053213;28;19913;-60
2022/12/21 09:04:11;;;;;;;;;;;9.60;99.90;;;;;;5057120;28;20413;-61
2022/12/21 09:06:36;;;;;;;;;;;9.60;99.90;;;;;;5052150;28;19917;-60
2022/12/21 09:09:02;;;;;;;;;;;9.60;99.90;;;;;;5054347;28;20326;-59
2022/12/21 09:11:27;;;;;;;;;;;9.70;99.90;;;;;;5058538;28;20003;-60
2022/12/21 09:13:53;;;;;;;;;;;9.70;99.90;;;;;;5055912;28;19912;-60
2022/12/21 09:16:19;;;;;;;;;;;9.70;99.90;;;;;;5057891;28;20372;-59
2022/12/21 09:18:45;;;;;;;;;;;9.60;99.90;;;;;;5055494;28;20382;-60
2022/12/21 09:21:12;;;;;;;;;;;9.60;99.90;;;;;;5048979;28;19962;-59
2022/12/21 09:23:37;;;;;;;;;;;9.60;99.90;;;;;;5053632;28;19960;-60
2022/12/21 09:26:03;;;;;;;;;;;9.60;99.90;;;;;;5055184;28;20025;-59
2022/12/21 09:28:29;;;;;;;;;;;9.80;99.90;;;;;;5059069;28;19920;-60
2022/12/21 09:30:55;;;;;;;;;;;9.90;99.90;;;;;;5053615;28;19917;-60
2022/12/21 09:33:23;;;;;;;;;;;10.00;99.90;;;;;;5056165;28;19923;-61
2022/12/21 09:35:52;;;;;;;;;;;10.00;99.90;;;;;;5049823;28;20436;-61
2022/12/21 09:38:18;;;;;;;;;;;10.10;99.90;;;;;;5057442;28;19952;-60
2022/12/21 09:40:45;;;;;;;;;;;10.10;99.90;;;;;;5049573;28;20001;-60
2022/12/21 09:43:23;;;;;;;;;;;10.20;99.90;;;;;;5049918;28;19916;-59
2022/12/21 09:45:51;;;;;;;;;;;10.20;99.90;;;;;;5053622;28;20396;-60
2022/12/21 09:48:19;;;;;;;;;;;10.30;99.90;;;;;;5049981;28;20039;-58
2022/12/21 09:50:48;;;;;;;;;;;10.40;99.90;;;;;;5052611;28;19920;-59
2022/12/21 09:53:16;;;;;;;;;;;10.40;99.90;;;;;;5050765;28;20394;-58
2022/12/21 09:55:44;;;;;;;;;;;10.40;99.90;;;;;;5053234;28;19928;-60
2022/12/21 09:58:13;;;;;;;;;;;10.50;99.90;;;;;;5060359;28;19917;-60
2022/12/21 10:00:40;;;;;;;;;;;10.50;99.90;;;;;;5053339;28;20034;-60
2022/12/21 10:03:06;;;;;;;;;;;10.50;99.90;;;;;;5058516;28;19921;-60
2022/12/21 10:05:51;;;;;;;;;;;10.50;99.90;;;;;;5048605;28;19908;-59
2022/12/21 10:08:42;;;;;;;;;;;10.50;99.90;;;;;;5046481;28;19924;-59
2022/12/21 10:11:10;;;;;;;;;;;10.60;99.90;;;;;;5053771;28;19916;-58
2022/12/21 10:13:54;;;;;;;;;;;10.60;99.90;;;;;;5047084;28;20061;-59
2022/12/21 10:16:29;;;;;;;;;;;10.50;99.90;;;;;;5060052;28;19916;-60
2022/12/21 10:19:04;;;;;;;;;;;10.50;99.90;;;;;;5050273;28;19920;-59
2022/12/21 10:21:36;;;;;;;;;;;10.50;99.90;;;;;;5058519;28;19913;-61
2022/12/21 10:24:03;;;;;;;;;;;10.50;99.90;;;;;;5042982;28;20297;-58
2022/12/21 10:26:33;;;;;;;;;;;10.60;99.90;;;;;;5053660;28;20023;-59
2022/12/21 10:29:01;;;;;;;;;;;10.60;99.90;;;;;;5046368;28;19917;-60
2022/12/21 10:31:31;;;;;;;;;;;10.50;99.90;;;;;;5053612;28;19921;-59
2022/12/21 10:33:57;;;;;;;;;;;10.50;99.90;;;;;;5049295;28;20379;-58
2022/12/21 10:36:25;;;;;;;;;;;10.50;99.90;;;;;;5060563;28;19913;-58
2022/12/21 10:38:51;;;;;;;;;;;10.50;99.90;;;;;;5045553;28;19909;-61
2022/12/21 10:41:23;;;;;;;;;;;10.50;99.90;;;;;;5044429;28;19920;-59
2022/12/21 10:43:50;;;;;;;;;;;10.40;99.90;;;;;;5052272;28;19923;-59
2022/12/21 10:46:19;;;;;;;;;;;10.50;99.90;;;;;;5051572;28;19917;-57
2022/12/21 10:48:48;;;;;;;;;;;10.40;99.90;;;;;;5047639;28;19963;-60
2022/12/21 10:51:25;;;;;;;;;;;10.50;99.90;;;;;;5044463;28;19916;-60
2022/12/21 10:54:02;;;;;;;;;;;10.40;99.90;;;;;;5057071;28;19959;-59
2022/12/21 10:56:28;;;;;;;;;;;10.50;99.90;;;;;;5049663;28;19925;-60
2022/12/21 10:58:54;;;;;;;;;;;10.50;99.90;;;;;;5049753;28;19916;-60
2022/12/21 11:01:22;;;;;;;;;;;10.70;99.90;;;;;;5049003;28;19999;-60
2022/12/21 11:04:04;;;;;;;;;;;10.70;99.90;;;;;;5050807;28;19929;-58
2022/12/21 11:06:30;;;;;;;;;;;10.70;99.90;;;;;;5055064;28;19991;-60
2022/12/21 11:08:55;;;;;;;;;;;10.70;99.90;;;;;;5055339;28;19999;-60
2022/12/21 11:11:30;;;;;;;;;;;10.70;99.90;;;;;;5052849;28;19913;-60
2022/12/21 11:13:59;;;;;;;;;;;10.60;99.90;;;;;;5053282;28;20003;-60
2022/12/21 11:16:26;;;;;;;;;;;10.60;99.90;;;;;;5048372;28;21563;-59
2022/12/21 11:18:52;;;;;;;;;;;10.60;99.90;;;;;;5048809;28;19917;-61
2022/12/21 11:21:21;;;;;;;;;;;10.50;99.90;;;;;;5047976;28;19920;-59
2022/12/21 11:24:13;;;;;;;;;;;10.50;99.90;;;;;;5053054;28;19948;-61
2022/12/21 11:26:46;;;;;;;;;;;10.50;99.90;;;;;;5031817;28;19913;-59
2022/12/21 11:29:16;;;;;;;;;;;10.50;99.90;;;;;;5048349;28;19952;-59
2022/12/21 11:31:42;;;;;;;;;;;10.50;99.90;;;;;;5049453;28;20364;-59
2022/12/21 11:34:19;;;;;;;;;;;10.50;99.90;;;;;;5051049;28;20386;-60
2022/12/21 11:37:11;;;;;;;;;;;10.40;99.90;;;;;;5048430;28;19912;-59
2022/12/21 11:39:38;;;;;;;;;;;10.40;99.90;;;;;;5034882;28;19978;-60
2022/12/21 11:42:14;;;;;;;;;;;10.40;99.90;;;;;;5060399;28;19999;-59
2022/12/21 11:44:40;;;;;;;;;;;10.40;99.90;;;;;;5049055;28;20454;-60
2022/12/21 11:47:20;;;;;;;;;;;10.40;99.90;;;;;;5046396;28;20007;-59
2022/12/21 11:49:55;;;;;;;;;;;10.40;99.90;;;;;;5054844;28;19952;-60
2022/12/21 11:52:53;;;;;;;;;;;10.50;99.90;;;;;;5058522;28;20348;-60
2022/12/21 11:55:21;;;;;;;;;;;10.50;99.90;;;;;;5026498;28;20378;-59
2022/12/21 11:57:49;;;;;;;;;;;10.40;99.90;;;;;;5052616;28;19916;-60
2022/12/21 12:00:19;;;;;;;;;;;10.50;99.90;;;;;;5049737;28;20357;-60
2022/12/21 12:02:45;;;;;;;;;;;10.50;99.90;;;;;;5048379;28;19962;-60
2022/12/21 12:05:29;;;;;;;;;;;10.50;99.90;;;;;;5049122;28;20287;-60
2022/12/21 12:07:57;;;;;;;;;;;10.60;99.90;;;;;;5043945;28;19923;-59
2022/12/21 12:10:36;;;;;;;;;;;10.60;99.90;;;;;;5049303;28;19920;-59
2022/12/21 12:13:01;;;;;;;;;;;10.60;99.90;;;;;;5046848;28;19978;-58
2022/12/21 12:15:33;;;;;;;;;;;10.60;99.90;;;;;;5052860;28;19917;-58
2022/12/21 12:18:05;;;;;;;;;;;10.60;99.90;;;;;;5049198;28;19959;-59
2022/12/21 12:20:43;;;;;;;;;;;10.60;99.90;;;;;;5056653;28;19956;-58
2022/12/21 12:23:32;;;;;;;;;;;10.70;99.90;;;;;;5046805;28;20379;-58
2022/12/21 12:26:16;;;;;;;;;;;10.70;99.90;;;;;;5045004;28;19920;-58
2022/12/21 12:28:56;;;;;;;;;;;10.80;99.90;;;;;;5052543;28;19920;-60
2022/12/21 12:31:27;;;;;;;;;;;10.90;99.90;;;;;;5044927;28;19956;-58
2022/12/21 12:34:03;;;;;;;;;;;10.90;99.90;;;;;;5049140;28;20566;-60
2022/12/21 12:36:47;;;;;;;;;;;11.00;99.90;;;;;;5041810;28;20012;-59
2022/12/21 12:39:18;;;;;;;;;;;11.00;99.90;;;;;;5055833;28;19917;-60
2022/12/21 12:41:52;;;;;;;;;;;11.00;99.90;;;;;;5049939;28;19920;-57
2022/12/21 12:44:17;;;;;;;;;;;10.90;99.90;;;;;;5050388;28;19921;-58
2022/12/21 12:47:01;;;;;;;;;;;10.90;99.90;;;;;;5044367;28;19940;-60
2022/12/21 12:49:26;;;;;;;;;;;10.80;99.90;;;;;;5054034;28;20850;-60
2022/12/21 12:52:01;;;;;;;;;;;10.80;99.90;;;;;;5042590;28;19913;-59
2022/12/21 12:54:33;;;;;;;;;;;10.80;99.90;;;;;;5053959;28;19917;-60
2022/12/21 12:57:18;;;;;;;;;;;10.70;99.90;;;;;;5043036;28;20043;-61
2022/12/21 12:59:47;;;;;;;;;;;10.70;99.90;;;;;;5045621;28;20003;-58
2022/12/21 13:02:16;;;;;;;;;;;10.70;99.90;;;;;;5048893;28;19971;-61
2022/12/21 13:04:53;;;;;;;;;;;10.80;99.90;;;;;;5043006;28;20004;-58
2022/12/21 13:07:29;;;;;;;;;;;10.80;99.90;;;;;;5044106;28;20382;-59
2022/12/21 13:10:02;;;;;;;;;;;10.90;99.90;;;;;;5048428;28;19921;-59
2022/12/21 13:12:41;;;;;;;;;;;10.90;99.90;;;;;;5044958;28;20432;-58
2022/12/21 13:15:14;;;;;;;;;;;10.80;99.90;;;;;;5043262;28;19963;-60
2022/12/21 13:17:52;;;;;;;;;;;10.80;99.90;;;;;;5057211;28;19920;-60
2022/12/21 13:20:19;;;;;;;;;;;10.80;99.90;;;;;;5046564;28;20018;-60
2022/12/21 13:22:49;;;;;;;;;;;10.80;99.90;;;;;;5049283;28;20382;-59
2022/12/21 13:25:18;;;;;;;;;;;10.80;99.90;;;;;;5048147;28;19920;-61
2022/12/21 13:27:46;;;;;;;;;;;10.90;99.90;;;;;;5051140;28;19921;-59
2022/12/21 13:30:18;;;;;;;;;;;10.90;99.90;;;;;;5044978;28;19987;-60
2022/12/21 13:32:48;;;;;;;;;;;10.90;99.90;;;;;;5045937;28;19920;-60
2022/12/21 13:35:14;;;;;;;;;;;10.90;99.90;;;;;;5048686;28;19927;-59
2022/12/21 13:37:39;;;;;;;;;;;10.90;99.90;;;;;;5046337;28;19912;-58
2022/12/21 13:40:05;;;;;;;;;;;10.90;99.90;;;;;;5044237;28;20362;-58
2022/12/21 13:42:30;;;;;;;;;;;10.90;99.90;;;;;;5048127;28;19978;-60
2022/12/21 13:44:58;;;;;;;;;;;10.90;99.90;;;;;;5049369;28;19920;-59
2022/12/21 13:47:25;;;;;;;;;;;10.80;99.90;;;;;;5048142;28;19927;-59
2022/12/21 13:49:56;;;;;;;;;;;10.70;99.90;;;;;;5046999;28;19999;-59
2022/12/21 13:52:22;;;;;;;;;;;10.80;99.90;;;;;;5048883;28;19981;-59
2022/12/21 13:54:55;;;;;;;;;;;10.70;99.90;;;;;;5045675;28;19917;-60
2022/12/21 13:57:36;;;;;;;;;;;10.70;99.90;;;;;;5049875;28;19913;-60
2022/12/21 14:00:08;;;;;;;;;;;10.70;99.90;;;;;;5046766;28;19912;-60
2022/12/21 14:02:51;;;;;;;;;;;10.60;99.90;;;;;;5046087;28;19999;-59
2022/12/21 14:05:19;;;;;;;;;;;10.70;99.90;;;;;;5050458;28;20026;-60
2022/12/21 14:07:47;;;;;;;;;;;10.70;99.90;;;;;;5048522;28;19913;-60
2022/12/21 14:10:22;;;;;;;;;;;10.60;99.90;;;;;;5042096;28;20290;-62
2022/12/21 14:13:10;;;;;;;;;;;10.50;99.90;;;;;;5042776;28;19939;-61
2022/12/21 14:15:38;;;;;;;;;;;10.50;99.90;;;;;;5048866;28;19968;-59
2022/12/21 14:18:08;;;;;;;;;;;10.50;99.90;;;;;;5042655;28;19966;-60
2022/12/21 14:20:36;;;;;;;;;;;10.40;99.90;;;;;;5047125;28;19912;-58
2022/12/21 14:23:04;;;;;;;;;;;10.40;99.90;;;;;;5047014;28;19920;-62
2022/12/21 14:25:30;;;;;;;;;;;10.40;99.90;;;;;;5044904;28;19966;-60
2022/12/21 14:28:04;;;;;;;;;;;10.30;99.90;;;;;;5049266;28;20120;-61
2022/12/21 14:30:31;;;;;;;;;;;10.30;99.90;;;;;;5051820;28;20386;-60
2022/12/21 14:32:59;;;;;;;;;;;10.10;99.90;;;;;;5054963;28;19940;-61
2022/12/21 14:35:45;;;;;;;;;;;10.10;99.90;;;;;;5054922;28;19931;-59
2022/12/21 14:38:30;;;;;;;;;;;10.10;99.90;;;;;;5060274;28;19939;-60
2022/12/21 14:41:00;;;;;;;;;;;10.10;99.90;;;;;;5046596;28;19916;-59
2022/12/21 14:43:27;;;;;;;;;;;10.10;99.90;;;;;;5049354;28;22345;-60
2022/12/21 14:45:53;;;;;;;;;;;10.10;99.90;;;;;;5049780;28;20011;-58
2022/12/21 14:48:28;;;;;;;;;;;10.00;99.90;;;;;;5052019;28;19909;-58
2022/12/21 14:50:56;;;;;;;;;;;9.90;99.90;;;;;;5052184;28;19916;-58
2022/12/21 14:53:28;;;;;;;;;;;9.80;99.90;;;;;;5057284;28;19912;-60
2022/12/21 14:56:02;;;;;;;;;;;9.70;99.90;;;;;;5056466;28;19916;-56